sensor_id;sensor_type;location;lat;lon;timestamp;temperature;humidity
26721;HTU21D;15950;51.112;6.966;2023-03-29T00:00:15;5.85;83.60
26721;HTU21D;15950;51.112;6.966;2023-03-29T00:03:16;5.71;83.77
26721;HTU21D;15950;51.112;6.966;2023-03-29T00:06:15;5.71;83.74
26721;HTU21D;15950;51.112;6.966;2023-03-29T00:09:16;5.70;83.98
26721;HTU21D;15950;51.112;6.966;2023-03-29T00:12:15;5.60;84.19
26721;HTU21D;15950;51.112;6.966;2023-03-29T00:15:15;5.69;84.20
26721;HTU21D;15950;51.112;6.966;2023-03-29T00:18:15;5.58;84.28
26721;HTU21D;15950;51.112;6.966;2023-03-29T00:21:15;5.66;83.81
26721;HTU21D;15950;51.112;6.966;2023-03-29T00:24:15;5.66;83.55
26721;HTU21D;15950;51.112;6.966;2023-03-29T00:27:15;5.66;83.78
26721;HTU21D;15950;51.112;6.966;2023-03-29T00:30:15;5.70;83.60
26721;HTU21D;15950;51.112;6.966;2023-03-29T00:33:16;5.73;83.36
26721;HTU21D;15950;51.112;6.966;2023-03-29T00:36:15;5.69;83.39
26721;HTU21D;15950;51.112;6.966;2023-03-29T00:39:16;5.70;83.36
26721;HTU21D;15950;51.112;6.966;2023-03-29T00:42:16;5.67;83.23
26721;HTU21D;15950;51.112;6.966;2023-03-29T00:45:23;5.71;82.81
26721;HTU21D;15950;51.112;6.966;2023-03-29T00:48:25;5.73;83.00
26721;HTU21D;15950;51.112;6.966;2023-03-29T00:51:16;5.71;82.92
26721;HTU21D;15950;51.112;6.966;2023-03-29T00:54:16;5.71;82.90
26721;HTU21D;15950;51.112;6.966;2023-03-29T00:57:16;5.75;82.60
26721;HTU21D;15950;51.112;6.966;2023-03-29T01:00:17;5.79;82.51
26721;HTU21D;15950;51.112;6.966;2023-03-29T01:03:15;5.84;82.35
26721;HTU21D;15950;51.112;6.966;2023-03-29T01:06:17;5.81;82.39
26721;HTU21D;15950;51.112;6.966;2023-03-29T01:09:19;5.76;82.57
26721;HTU21D;15950;51.112;6.966;2023-03-29T01:12:22;5.82;82.36
26721;HTU21D;15950;51.112;6.966;2023-03-29T01:15:19;5.89;82.18
26721;HTU21D;15950;51.112;6.966;2023-03-29T01:18:15;5.90;81.84
26721;HTU21D;15950;51.112;6.966;2023-03-29T01:30:24;5.90;81.65
26721;HTU21D;15950;51.112;6.966;2023-03-29T01:36:22;5.97;81.60
26721;HTU21D;15950;51.112;6.966;2023-03-29T01:39:15;5.96;81.77
26721;HTU21D;15950;51.112;6.966;2023-03-29T01:51:22;5.98;81.83
26721;HTU21D;15950;51.112;6.966;2023-03-29T01:54:23;5.96;82.01
26721;HTU21D;15950;51.112;6.966;2023-03-29T01:57:18;5.95;81.71
26721;HTU21D;15950;51.112;6.966;2023-03-29T02:00:21;6.10;81.48
26721;HTU21D;15950;51.112;6.966;2023-03-29T02:03:16;6.03;81.82
26721;HTU21D;15950;51.112;6.966;2023-03-29T02:06:18;6.04;81.67
26721;HTU21D;15950;51.112;6.966;2023-03-29T02:09:16;6.10;81.77
26721;HTU21D;15950;51.112;6.966;2023-03-29T02:12:16;6.01;81.63
26721;HTU21D;15950;51.112;6.966;2023-03-29T02:15:18;6.11;81.68
26721;HTU21D;15950;51.112;6.966;2023-03-29T02:18:16;6.14;81.83
26721;HTU21D;15950;51.112;6.966;2023-03-29T02:22:04;6.03;81.82
26721;HTU21D;15950;51.112;6.966;2023-03-29T02:24:17;6.14;81.40
26721;HTU21D;15950;51.112;6.966;2023-03-29T02:27:15;6.12;81.68
26721;HTU21D;15950;51.112;6.966;2023-03-29T02:30:17;6.02;81.95
26721;HTU21D;15950;51.112;6.966;2023-03-29T02:33:25;6.10;81.84
26721;HTU21D;15950;51.112;6.966;2023-03-29T02:36:22;6.17;81.62
26721;HTU21D;15950;51.112;6.966;2023-03-29T02:39:16;6.16;81.61
26721;HTU21D;15950;51.112;6.966;2023-03-29T02:42:16;6.14;81.34
26721;HTU21D;15950;51.112;6.966;2023-03-29T02:45:16;6.20;81.33
26721;HTU21D;15950;51.112;6.966;2023-03-29T02:48:18;6.26;81.38
26721;HTU21D;15950;51.112;6.966;2023-03-29T02:51:23;6.16;81.22
26721;HTU21D;15950;51.112;6.966;2023-03-29T02:54:18;6.26;81.20
26721;HTU21D;15950;51.112;6.966;2023-03-29T02:57:15;6.50;80.41
26721;HTU21D;15950;51.112;6.966;2023-03-29T03:00:16;6.57;79.97
26721;HTU21D;15950;51.112;6.966;2023-03-29T03:03:15;6.48;79.93
26721;HTU21D;15950;51.112;6.966;2023-03-29T03:06:15;6.52;80.25
26721;HTU21D;15950;51.112;6.966;2023-03-29T03:09:15;6.54;80.06
26721;HTU21D;15950;51.112;6.966;2023-03-29T03:12:15;6.51;80.23
26721;HTU21D;15950;51.112;6.966;2023-03-29T03:15:15;6.45;80.44
26721;HTU21D;15950;51.112;6.966;2023-03-29T03:18:15;6.39;80.62
26721;HTU21D;15950;51.112;6.966;2023-03-29T03:21:16;6.29;80.87
26721;HTU21D;15950;51.112;6.966;2023-03-29T03:24:15;6.40;80.46
26721;HTU21D;15950;51.112;6.966;2023-03-29T03:27:15;6.40;80.43
26721;HTU21D;15950;51.112;6.966;2023-03-29T03:30:16;6.36;80.78
26721;HTU21D;15950;51.112;6.966;2023-03-29T03:33:15;6.33;80.97
26721;HTU21D;15950;51.112;6.966;2023-03-29T03:36:15;6.36;81.16
26721;HTU21D;15950;51.112;6.966;2023-03-29T03:39:15;6.33;81.24
26721;HTU21D;15950;51.112;6.966;2023-03-29T03:42:15;6.32;81.15
26721;HTU21D;15950;51.112;6.966;2023-03-29T03:45:15;6.36;80.99
26721;HTU21D;15950;51.112;6.966;2023-03-29T03:48:15;6.38;80.81
26721;HTU21D;15950;51.112;6.966;2023-03-29T03:51:15;6.49;80.49
26721;HTU21D;15950;51.112;6.966;2023-03-29T03:54:15;6.49;80.55
26721;HTU21D;15950;51.112;6.966;2023-03-29T03:57:15;6.45;80.51
26721;HTU21D;15950;51.112;6.966;2023-03-29T04:00:15;6.49;80.57
26721;HTU21D;15950;51.112;6.966;2023-03-29T04:03:16;6.43;80.69
26721;HTU21D;15950;51.112;6.966;2023-03-29T04:06:15;6.53;80.78
26721;HTU21D;15950;51.112;6.966;2023-03-29T04:09:15;6.57;80.75
26721;HTU21D;15950;51.112;6.966;2023-03-29T04:12:15;6.56;81.01
26721;HTU21D;15950;51.112;6.966;2023-03-29T04:15:15;6.56;81.05
26721;HTU21D;15950;51.112;6.966;2023-03-29T04:18:15;6.59;81.09
26721;HTU21D;15950;51.112;6.966;2023-03-29T04:21:15;6.64;81.27
26721;HTU21D;15950;51.112;6.966;2023-03-29T04:24:15;6.67;81.23
26721;HTU21D;15950;51.112;6.966;2023-03-29T04:27:15;6.61;81.49
26721;HTU21D;15950;51.112;6.966;2023-03-29T04:30:15;6.65;81.81
26721;HTU21D;15950;51.112;6.966;2023-03-29T04:33:15;6.48;82.47
26721;HTU21D;15950;51.112;6.966;2023-03-29T04:36:15;6.54;82.81
26721;HTU21D;15950;51.112;6.966;2023-03-29T04:39:15;6.42;83.29
26721;HTU21D;15950;51.112;6.966;2023-03-29T04:42:15;6.55;83.13
26721;HTU21D;15950;51.112;6.966;2023-03-29T04:45:15;6.57;82.74
26721;HTU21D;15950;51.112;6.966;2023-03-29T04:48:15;6.54;82.96
26721;HTU21D;15950;51.112;6.966;2023-03-29T04:51:15;6.55;83.00
26721;HTU21D;15950;51.112;6.966;2023-03-29T04:54:15;6.59;83.26
26721;HTU21D;15950;51.112;6.966;2023-03-29T04:57:15;6.57;83.36
26721;HTU21D;15950;51.112;6.966;2023-03-29T05:00:15;6.54;83.50
26721;HTU21D;15950;51.112;6.966;2023-03-29T05:03:15;6.59;83.31
26721;HTU21D;15950;51.112;6.966;2023-03-29T05:06:15;6.64;83.29
26721;HTU21D;15950;51.112;6.966;2023-03-29T05:09:15;6.59;83.15
26721;HTU21D;15950;51.112;6.966;2023-03-29T05:12:15;6.59;83.06
26721;HTU21D;15950;51.112;6.966;2023-03-29T05:15:15;6.65;82.89
26721;HTU21D;15950;51.112;6.966;2023-03-29T05:18:15;6.71;82.84
26721;HTU21D;15950;51.112;6.966;2023-03-29T05:21:15;6.68;83.03
26721;HTU21D;15950;51.112;6.966;2023-03-29T05:24:15;6.61;83.17
26721;HTU21D;15950;51.112;6.966;2023-03-29T05:27:15;6.67;83.02
26721;HTU21D;15950;51.112;6.966;2023-03-29T05:30:15;6.72;82.81
26721;HTU21D;15950;51.112;6.966;2023-03-29T05:33:15;6.73;82.83
26721;HTU21D;15950;51.112;6.966;2023-03-29T05:36:16;6.72;83.00
26721;HTU21D;15950;51.112;6.966;2023-03-29T05:39:15;6.69;83.33
26721;HTU21D;15950;51.112;6.966;2023-03-29T05:42:15;6.76;82.74
26721;HTU21D;15950;51.112;6.966;2023-03-29T05:45:15;6.80;82.71
26721;HTU21D;15950;51.112;6.966;2023-03-29T05:48:15;6.77;82.60
26721;HTU21D;15950;51.112;6.966;2023-03-29T05:51:15;6.78;82.49
26721;HTU21D;15950;51.112;6.966;2023-03-29T05:54:15;6.77;82.15
26721;HTU21D;15950;51.112;6.966;2023-03-29T05:57:15;6.78;81.85
26721;HTU21D;15950;51.112;6.966;2023-03-29T06:00:15;6.83;81.30
26721;HTU21D;15950;51.112;6.966;2023-03-29T06:03:16;6.91;81.38
26721;HTU21D;15950;51.112;6.966;2023-03-29T06:06:15;6.97;81.10
26721;HTU21D;15950;51.112;6.966;2023-03-29T06:09:15;6.92;81.19
26721;HTU21D;15950;51.112;6.966;2023-03-29T06:12:15;6.97;81.10
26721;HTU21D;15950;51.112;6.966;2023-03-29T06:15:16;6.99;80.77
26721;HTU21D;15950;51.112;6.966;2023-03-29T06:18:15;7.02;80.98
26721;HTU21D;15950;51.112;6.966;2023-03-29T06:21:15;7.06;80.28
26721;HTU21D;15950;51.112;6.966;2023-03-29T06:24:15;7.12;80.03
26721;HTU21D;15950;51.112;6.966;2023-03-29T06:27:15;7.13;80.39
26721;HTU21D;15950;51.112;6.966;2023-03-29T06:30:15;7.15;80.33
26721;HTU21D;15950;51.112;6.966;2023-03-29T06:33:15;7.18;80.30
26721;HTU21D;15950;51.112;6.966;2023-03-29T06:36:17;7.12;80.30
26721;HTU21D;15950;51.112;6.966;2023-03-29T06:39:18;7.12;79.99
26721;HTU21D;15950;51.112;6.966;2023-03-29T06:42:15;7.19;79.78
26721;HTU21D;15950;51.112;6.966;2023-03-29T06:45:15;7.24;79.67
26721;HTU21D;15950;51.112;6.966;2023-03-29T06:48:15;7.26;79.43
26721;HTU21D;15950;51.112;6.966;2023-03-29T06:51:15;7.31;79.29
26721;HTU21D;15950;51.112;6.966;2023-03-29T06:54:15;7.34;78.87
26721;HTU21D;15950;51.112;6.966;2023-03-29T06:57:15;7.45;78.48
26721;HTU21D;15950;51.112;6.966;2023-03-29T07:00:16;7.46;78.14
26721;HTU21D;15950;51.112;6.966;2023-03-29T07:03:15;7.45;78.16
26721;HTU21D;15950;51.112;6.966;2023-03-29T07:06:15;7.47;78.14
26721;HTU21D;15950;51.112;6.966;2023-03-29T07:09:15;7.53;78.03
26721;HTU21D;15950;51.112;6.966;2023-03-29T07:12:15;7.58;77.84
26721;HTU21D;15950;51.112;6.966;2023-03-29T07:15:15;7.51;77.85
26721;HTU21D;15950;51.112;6.966;2023-03-29T07:18:15;7.65;77.49
26721;HTU21D;15950;51.112;6.966;2023-03-29T07:21:15;7.69;77.23
26721;HTU21D;15950;51.112;6.966;2023-03-29T07:24:15;7.72;77.31
26721;HTU21D;15950;51.112;6.966;2023-03-29T07:27:15;7.74;77.05
26721;HTU21D;15950;51.112;6.966;2023-03-29T07:30:17;7.76;76.92
26721;HTU21D;15950;51.112;6.966;2023-03-29T07:33:15;7.81;76.64
26721;HTU21D;15950;51.112;6.966;2023-03-29T07:36:15;7.83;76.42
26721;HTU21D;15950;51.112;6.966;2023-03-29T07:39:15;7.87;76.07
26721;HTU21D;15950;51.112;6.966;2023-03-29T07:42:15;7.94;75.71
26721;HTU21D;15950;51.112;6.966;2023-03-29T07:45:15;8.00;75.67
26721;HTU21D;15950;51.112;6.966;2023-03-29T07:48:15;8.03;75.92
26721;HTU21D;15950;51.112;6.966;2023-03-29T07:51:15;8.05;76.08
26721;HTU21D;15950;51.112;6.966;2023-03-29T07:54:15;8.08;76.46
26721;HTU21D;15950;51.112;6.966;2023-03-29T07:57:15;8.16;77.17
26721;HTU21D;15950;51.112;6.966;2023-03-29T08:00:16;8.10;77.66
26721;HTU21D;15950;51.112;6.966;2023-03-29T08:03:15;8.17;77.65
26721;HTU21D;15950;51.112;6.966;2023-03-29T08:06:15;8.17;77.05
26721;HTU21D;15950;51.112;6.966;2023-03-29T08:09:15;8.17;76.86
26721;HTU21D;15950;51.112;6.966;2023-03-29T08:12:15;8.32;76.41
26721;HTU21D;15950;51.112;6.966;2023-03-29T08:15:15;8.35;76.44
26721;HTU21D;15950;51.112;6.966;2023-03-29T08:18:15;8.48;75.95
26721;HTU21D;15950;51.112;6.966;2023-03-29T08:21:15;8.53;75.76
26721;HTU21D;15950;51.112;6.966;2023-03-29T08:24:15;8.48;75.99
26721;HTU21D;15950;51.112;6.966;2023-03-29T08:27:15;8.56;75.79
26721;HTU21D;15950;51.112;6.966;2023-03-29T08:30:15;8.67;75.62
26721;HTU21D;15950;51.112;6.966;2023-03-29T08:33:15;8.67;75.70
26721;HTU21D;15950;51.112;6.966;2023-03-29T08:36:15;8.74;75.21
26721;HTU21D;15950;51.112;6.966;2023-03-29T08:39:15;8.80;75.22
26721;HTU21D;15950;51.112;6.966;2023-03-29T08:51:21;8.99;74.51
26721;HTU21D;15950;51.112;6.966;2023-03-29T08:54:21;9.03;74.25
26721;HTU21D;15950;51.112;6.966;2023-03-29T08:57:21;9.08;74.02
26721;HTU21D;15950;51.112;6.966;2023-03-29T09:00:27;9.09;74.15
26721;HTU21D;15950;51.112;6.966;2023-03-29T09:06:19;9.14;73.90
26721;HTU21D;15950;51.112;6.966;2023-03-29T09:09:19;9.15;73.57
26721;HTU21D;15950;51.112;6.966;2023-03-29T09:15:21;9.29;73.41
26721;HTU21D;15950;51.112;6.966;2023-03-29T09:28:02;9.51;73.24
26721;HTU21D;15950;51.112;6.966;2023-03-29T09:33:23;9.68;73.29
26721;HTU21D;15950;51.112;6.966;2023-03-29T09:39:15;9.84;73.31
26721;HTU21D;15950;51.112;6.966;2023-03-29T09:42:16;9.93;73.32
26721;HTU21D;15950;51.112;6.966;2023-03-29T09:45:15;9.96;72.42
26721;HTU21D;15950;51.112;6.966;2023-03-29T09:48:18;10.05;72.20
26721;HTU21D;15950;51.112;6.966;2023-03-29T09:51:18;10.20;72.15
26721;HTU21D;15950;51.112;6.966;2023-03-29T09:54:15;10.29;71.89
26721;HTU21D;15950;51.112;6.966;2023-03-29T09:57:16;10.37;71.51
26721;HTU21D;15950;51.112;6.966;2023-03-29T10:00:16;10.46;71.42
26721;HTU21D;15950;51.112;6.966;2023-03-29T10:03:24;10.49;70.93
26721;HTU21D;15950;51.112;6.966;2023-03-29T10:06:15;10.58;71.01
26721;HTU21D;15950;51.112;6.966;2023-03-29T10:09:20;10.68;71.35
26721;HTU21D;15950;51.112;6.966;2023-03-29T10:12:15;10.81;71.45
26721;HTU21D;15950;51.112;6.966;2023-03-29T10:15:16;10.82;71.04
26721;HTU21D;15950;51.112;6.966;2023-03-29T10:18:15;10.91;71.45
26721;HTU21D;15950;51.112;6.966;2023-03-29T10:21:16;11.04;71.22
26721;HTU21D;15950;51.112;6.966;2023-03-29T10:24:20;11.19;71.05
26721;HTU21D;15950;51.112;6.966;2023-03-29T10:27:19;11.22;70.67
26721;HTU21D;15950;51.112;6.966;2023-03-29T10:30:21;11.24;70.33
26721;HTU21D;15950;51.112;6.966;2023-03-29T10:33:17;11.37;70.54
26721;HTU21D;15950;51.112;6.966;2023-03-29T10:36:15;11.48;70.77
26721;HTU21D;15950;51.112;6.966;2023-03-29T10:39:15;11.48;70.34
26721;HTU21D;15950;51.112;6.966;2023-03-29T10:42:17;11.28;70.61
26721;HTU21D;15950;51.112;6.966;2023-03-29T10:45:23;11.42;70.60
26721;HTU21D;15950;51.112;6.966;2023-03-29T10:48:16;11.49;70.97
26721;HTU21D;15950;51.112;6.966;2023-03-29T10:51:17;11.49;71.03
26721;HTU21D;15950;51.112;6.966;2023-03-29T10:54:17;11.55;70.69
26721;HTU21D;15950;51.112;6.966;2023-03-29T11:09:18;12.05;68.29
26721;HTU21D;15950;51.112;6.966;2023-03-29T11:36:24;12.51;68.49
26721;HTU21D;15950;51.112;6.966;2023-03-29T11:39:33;12.73;68.56
26721;HTU21D;15950;51.112;6.966;2023-03-29T11:42:22;12.89;68.51
26721;HTU21D;15950;51.112;6.966;2023-03-29T11:45:42;12.96;68.57
26721;HTU21D;15950;51.112;6.966;2023-03-29T11:48:23;13.06;68.01
26721;HTU21D;15950;51.112;6.966;2023-03-29T11:51:24;13.12;67.77
26721;HTU21D;15950;51.112;6.966;2023-03-29T12:06:40;13.16;68.14
26721;HTU21D;15950;51.112;6.966;2023-03-29T12:12:21;13.33;67.98
26721;HTU21D;15950;51.112;6.966;2023-03-29T12:15:23;13.39;67.93
26721;HTU21D;15950;51.112;6.966;2023-03-29T12:18:22;13.34;67.60
26721;HTU21D;15950;51.112;6.966;2023-03-29T12:21:20;13.50;67.81
26721;HTU21D;15950;51.112;6.966;2023-03-29T12:24:16;13.43;67.09
26721;HTU21D;15950;51.112;6.966;2023-03-29T12:27:18;13.49;67.41
26721;HTU21D;15950;51.112;6.966;2023-03-29T12:39:17;13.65;66.76
26721;HTU21D;15950;51.112;6.966;2023-03-29T12:42:18;13.88;66.55
26721;HTU21D;15950;51.112;6.966;2023-03-29T12:45:29;13.99;66.37
26721;HTU21D;15950;51.112;6.966;2023-03-29T12:48:18;14.07;66.28
26721;HTU21D;15950;51.112;6.966;2023-03-29T12:51:18;14.14;66.27
26721;HTU21D;15950;51.112;6.966;2023-03-29T12:54:18;14.22;66.28
26721;HTU21D;15950;51.112;6.966;2023-03-29T12:57:27;14.22;66.30
26721;HTU21D;15950;51.112;6.966;2023-03-29T13:00:21;14.39;66.93
26721;HTU21D;15950;51.112;6.966;2023-03-29T13:30:24;14.97;65.64
26721;HTU21D;15950;51.112;6.966;2023-03-29T13:39:21;15.04;65.40
26721;HTU21D;15950;51.112;6.966;2023-03-29T13:48:23;15.22;64.33
26721;HTU21D;15950;51.112;6.966;2023-03-29T13:57:20;15.04;64.59
26721;HTU21D;15950;51.112;6.966;2023-03-29T14:00:26;15.16;64.28
26721;HTU21D;15950;51.112;6.966;2023-03-29T14:03:17;15.17;64.24
26721;HTU21D;15950;51.112;6.966;2023-03-29T14:06:21;15.20;64.63
26721;HTU21D;15950;51.112;6.966;2023-03-29T14:09:16;15.29;64.96
26721;HTU21D;15950;51.112;6.966;2023-03-29T14:12:16;15.25;64.47
26721;HTU21D;15950;51.112;6.966;2023-03-29T14:15:24;15.31;64.79
26721;HTU21D;15950;51.112;6.966;2023-03-29T14:18:18;15.20;64.62
26721;HTU21D;15950;51.112;6.966;2023-03-29T14:21:16;15.16;64.50
26721;HTU21D;15950;51.112;6.966;2023-03-29T14:24:22;15.12;64.76
26721;HTU21D;15950;51.112;6.966;2023-03-29T14:27:15;15.07;64.69
26721;HTU21D;15950;51.112;6.966;2023-03-29T14:30:19;15.12;64.84
26721;HTU21D;15950;51.112;6.966;2023-03-29T14:33:23;15.14;64.61
26721;HTU21D;15950;51.112;6.966;2023-03-29T14:36:15;15.19;64.56
26721;HTU21D;15950;51.112;6.966;2023-03-29T14:39:20;15.13;64.30
26721;HTU21D;15950;51.112;6.966;2023-03-29T14:42:20;15.18;64.37
26721;HTU21D;15950;51.112;6.966;2023-03-29T14:45:16;15.14;63.96
26721;HTU21D;15950;51.112;6.966;2023-03-29T14:48:15;15.24;64.03
26721;HTU21D;15950;51.112;6.966;2023-03-29T14:51:15;15.31;63.98
26721;HTU21D;15950;51.112;6.966;2023-03-29T14:54:21;15.35;64.27
26721;HTU21D;15950;51.112;6.966;2023-03-29T14:57:15;15.36;64.30
26721;HTU21D;15950;51.112;6.966;2023-03-29T15:00:22;15.26;64.28
26721;HTU21D;15950;51.112;6.966;2023-03-29T15:03:15;15.44;63.85
26721;HTU21D;15950;51.112;6.966;2023-03-29T15:06:15;15.39;64.80
26721;HTU21D;15950;51.112;6.966;2023-03-29T15:09:24;15.44;65.51
26721;HTU21D;15950;51.112;6.966;2023-03-29T15:12:15;15.50;65.28
26721;HTU21D;15950;51.112;6.966;2023-03-29T15:15:15;15.51;65.41
26721;HTU21D;15950;51.112;6.966;2023-03-29T15:18:15;15.60;64.97
26721;HTU21D;15950;51.112;6.966;2023-03-29T15:21:17;15.48;64.63
26721;HTU21D;15950;51.112;6.966;2023-03-29T15:27:17;15.57;64.94
26721;HTU21D;15950;51.112;6.966;2023-03-29T15:30:16;15.63;64.59
26721;HTU21D;15950;51.112;6.966;2023-03-29T15:33:19;15.60;65.06
26721;HTU21D;15950;51.112;6.966;2023-03-29T15:36:15;15.53;64.47
26721;HTU21D;15950;51.112;6.966;2023-03-29T15:39:16;15.47;64.59
26721;HTU21D;15950;51.112;6.966;2023-03-29T15:42:15;15.54;64.11
26721;HTU21D;15950;51.112;6.966;2023-03-29T15:45:16;15.50;64.15
26721;HTU21D;15950;51.112;6.966;2023-03-29T15:48:18;15.40;64.40
26721;HTU21D;15950;51.112;6.966;2023-03-29T15:51:15;15.40;64.18
26721;HTU21D;15950;51.112;6.966;2023-03-29T15:54:15;15.35;63.83
26721;HTU21D;15950;51.112;6.966;2023-03-29T15:57:15;15.30;63.80
26721;HTU21D;15950;51.112;6.966;2023-03-29T16:00:16;15.38;63.66
26721;HTU21D;15950;51.112;6.966;2023-03-29T16:03:15;15.37;64.11
26721;HTU21D;15950;51.112;6.966;2023-03-29T16:06:15;15.26;64.77
26721;HTU21D;15950;51.112;6.966;2023-03-29T16:09:15;15.31;64.78
26721;HTU21D;15950;51.112;6.966;2023-03-29T16:12:15;15.32;64.85
26721;HTU21D;15950;51.112;6.966;2023-03-29T16:15:17;15.31;65.02
26721;HTU21D;15950;51.112;6.966;2023-03-29T16:18:14;15.32;65.22
26721;HTU21D;15950;51.112;6.966;2023-03-29T16:21:16;15.34;64.39
26721;HTU21D;15950;51.112;6.966;2023-03-29T16:24:17;15.33;64.01
26721;HTU21D;15950;51.112;6.966;2023-03-29T16:27:15;15.33;63.76
26721;HTU21D;15950;51.112;6.966;2023-03-29T16:30:15;15.39;63.65
26721;HTU21D;15950;51.112;6.966;2023-03-29T16:33:15;15.37;63.83
26721;HTU21D;15950;51.112;6.966;2023-03-29T16:36:14;15.37;63.96
26721;HTU21D;15950;51.112;6.966;2023-03-29T16:39:15;15.38;64.01
26721;HTU21D;15950;51.112;6.966;2023-03-29T16:42:14;15.38;64.02
26721;HTU21D;15950;51.112;6.966;2023-03-29T16:45:15;15.37;64.04
26721;HTU21D;15950;51.112;6.966;2023-03-29T16:48:16;15.41;64.01
26721;HTU21D;15950;51.112;6.966;2023-03-29T16:51:14;15.41;64.01
26721;HTU21D;15950;51.112;6.966;2023-03-29T16:54:15;15.38;64.05
26721;HTU21D;15950;51.112;6.966;2023-03-29T16:57:14;15.36;64.30
26721;HTU21D;15950;51.112;6.966;2023-03-29T17:00:16;15.35;64.53
26721;HTU21D;15950;51.112;6.966;2023-03-29T17:03:15;15.35;65.01
26721;HTU21D;15950;51.112;6.966;2023-03-29T17:06:14;15.34;65.42
26721;HTU21D;15950;51.112;6.966;2023-03-29T17:09:14;15.23;66.18
26721;HTU21D;15950;51.112;6.966;2023-03-29T17:12:14;15.24;66.35
26721;HTU21D;15950;51.112;6.966;2023-03-29T17:15:15;15.29;66.49
26721;HTU21D;15950;51.112;6.966;2023-03-29T17:18:14;15.25;66.94
26721;HTU21D;15950;51.112;6.966;2023-03-29T17:21:15;15.25;67.20
26721;HTU21D;15950;51.112;6.966;2023-03-29T17:24:17;15.24;67.74
26721;HTU21D;15950;51.112;6.966;2023-03-29T17:27:14;15.35;67.74
26721;HTU21D;15950;51.112;6.966;2023-03-29T17:30:14;15.34;68.20
26721;HTU21D;15950;51.112;6.966;2023-03-29T17:33:15;15.34;68.27
26721;HTU21D;15950;51.112;6.966;2023-03-29T17:36:14;15.23;68.90
26721;HTU21D;15950;51.112;6.966;2023-03-29T17:39:14;15.23;69.45
26721;HTU21D;15950;51.112;6.966;2023-03-29T17:42:14;15.20;69.60
26721;HTU21D;15950;51.112;6.966;2023-03-29T17:45:15;15.17;70.04
26721;HTU21D;15950;51.112;6.966;2023-03-29T17:48:14;15.14;70.39
26721;HTU21D;15950;51.112;6.966;2023-03-29T17:51:15;15.19;70.44
26721;HTU21D;15950;51.112;6.966;2023-03-29T17:54:14;15.17;70.64
26721;HTU21D;15950;51.112;6.966;2023-03-29T17:57:14;15.14;71.00
26721;HTU21D;15950;51.112;6.966;2023-03-29T18:00:15;15.14;70.98
26721;HTU21D;15950;51.112;6.966;2023-03-29T18:03:14;15.11;71.53
26721;HTU21D;15950;51.112;6.966;2023-03-29T18:06:16;15.06;71.79
26721;HTU21D;15950;51.112;6.966;2023-03-29T18:09:14;15.05;72.21
26721;HTU21D;15950;51.112;6.966;2023-03-29T18:12:14;14.96;72.90
26721;HTU21D;15950;51.112;6.966;2023-03-29T18:15:14;14.99;73.33
26721;HTU21D;15950;51.112;6.966;2023-03-29T18:18:14;15.03;73.49
26721;HTU21D;15950;51.112;6.966;2023-03-29T18:21:15;15.16;73.17
26721;HTU21D;15950;51.112;6.966;2023-03-29T18:24:14;15.03;73.54
26721;HTU21D;15950;51.112;6.966;2023-03-29T18:27:14;14.94;74.04
26721;HTU21D;15950;51.112;6.966;2023-03-29T18:30:15;14.85;74.73
26721;HTU21D;15950;51.112;6.966;2023-03-29T18:33:14;14.85;74.90
26721;HTU21D;15950;51.112;6.966;2023-03-29T18:36:15;14.85;74.89
26721;HTU21D;15950;51.112;6.966;2023-03-29T18:39:15;14.73;75.18
26721;HTU21D;15950;51.112;6.966;2023-03-29T18:42:14;14.78;75.18
26721;HTU21D;15950;51.112;6.966;2023-03-29T18:45:14;14.81;75.16
26721;HTU21D;15950;51.112;6.966;2023-03-29T18:48:14;14.80;75.32
26721;HTU21D;15950;51.112;6.966;2023-03-29T18:51:14;14.87;74.97
26721;HTU21D;15950;51.112;6.966;2023-03-29T18:54:14;14.88;74.74
26721;HTU21D;15950;51.112;6.966;2023-03-29T18:57:14;14.83;74.96
26721;HTU21D;15950;51.112;6.966;2023-03-29T19:00:15;14.79;74.95
26721;HTU21D;15950;51.112;6.966;2023-03-29T19:03:14;14.67;75.25
26721;HTU21D;15950;51.112;6.966;2023-03-29T19:06:14;14.70;75.22
26721;HTU21D;15950;51.112;6.966;2023-03-29T19:09:14;14.70;75.19
26721;HTU21D;15950;51.112;6.966;2023-03-29T19:12:14;14.67;75.05
26721;HTU21D;15950;51.112;6.966;2023-03-29T19:15:14;14.69;74.92
26721;HTU21D;15950;51.112;6.966;2023-03-29T19:18:14;14.62;75.11
26721;HTU21D;15950;51.112;6.966;2023-03-29T19:21:14;14.63;75.09
26721;HTU21D;15950;51.112;6.966;2023-03-29T19:24:15;14.56;75.35
26721;HTU21D;15950;51.112;6.966;2023-03-29T19:27:14;14.53;75.55
26721;HTU21D;15950;51.112;6.966;2023-03-29T19:30:15;14.53;75.46
26721;HTU21D;15950;51.112;6.966;2023-03-29T19:33:15;14.49;75.47
26721;HTU21D;15950;51.112;6.966;2023-03-29T19:36:14;14.43;75.67
26721;HTU21D;15950;51.112;6.966;2023-03-29T19:39:15;14.40;75.71
26721;HTU21D;15950;51.112;6.966;2023-03-29T19:42:14;14.43;75.54
26721;HTU21D;15950;51.112;6.966;2023-03-29T19:45:15;14.41;75.49
26721;HTU21D;15950;51.112;6.966;2023-03-29T19:48:15;14.36;75.51
26721;HTU21D;15950;51.112;6.966;2023-03-29T19:51:14;14.38;75.31
26721;HTU21D;15950;51.112;6.966;2023-03-29T19:54:14;14.30;75.48
26721;HTU21D;15950;51.112;6.966;2023-03-29T19:57:14;14.39;75.32
26721;HTU21D;15950;51.112;6.966;2023-03-29T20:00:15;14.25;75.54
26721;HTU21D;15950;51.112;6.966;2023-03-29T20:03:15;14.30;75.34
26721;HTU21D;15950;51.112;6.966;2023-03-29T20:06:18;14.30;75.31
26721;HTU21D;15950;51.112;6.966;2023-03-29T20:09:15;14.17;75.56
26721;HTU21D;15950;51.112;6.966;2023-03-29T20:12:15;14.13;75.79
26721;HTU21D;15950;51.112;6.966;2023-03-29T20:15:14;14.16;75.72
26721;HTU21D;15950;51.112;6.966;2023-03-29T20:18:14;14.19;75.63
26721;HTU21D;15950;51.112;6.966;2023-03-29T20:21:15;14.08;76.07
26721;HTU21D;15950;51.112;6.966;2023-03-29T20:24:14;14.00;76.30
26721;HTU21D;15950;51.112;6.966;2023-03-29T20:27:14;13.88;76.60
26721;HTU21D;15950;51.112;6.966;2023-03-29T20:30:14;13.86;76.75
26721;HTU21D;15950;51.112;6.966;2023-03-29T20:33:14;13.86;76.80
26721;HTU21D;15950;51.112;6.966;2023-03-29T20:36:14;13.85;76.57
26721;HTU21D;15950;51.112;6.966;2023-03-29T20:39:14;13.84;76.79
26721;HTU21D;15950;51.112;6.966;2023-03-29T20:42:14;13.89;76.45
26721;HTU21D;15950;51.112;6.966;2023-03-29T20:45:15;13.80;76.57
26721;HTU21D;15950;51.112;6.966;2023-03-29T20:48:15;13.73;76.91
26721;HTU21D;15950;51.112;6.966;2023-03-29T20:51:14;13.72;76.86
26721;HTU21D;15950;51.112;6.966;2023-03-29T20:54:14;13.56;77.35
26721;HTU21D;15950;51.112;6.966;2023-03-29T20:57:17;13.60;77.23
26721;HTU21D;15950;51.112;6.966;2023-03-29T21:00:15;13.55;77.34
26721;HTU21D;15950;51.112;6.966;2023-03-29T21:03:14;13.61;77.05
26721;HTU21D;15950;51.112;6.966;2023-03-29T21:06:14;13.59;77.14
26721;HTU21D;15950;51.112;6.966;2023-03-29T21:09:16;13.53;77.38
26721;HTU21D;15950;51.112;6.966;2023-03-29T21:12:15;13.48;77.44
26721;HTU21D;15950;51.112;6.966;2023-03-29T21:15:15;13.50;77.31
26721;HTU21D;15950;51.112;6.966;2023-03-29T21:18:14;13.50;77.08
26721;HTU21D;15950;51.112;6.966;2023-03-29T21:21:14;13.46;77.21
26721;HTU21D;15950;51.112;6.966;2023-03-29T21:24:14;13.39;77.27